sensor_id;sensor_type;location;lat;lon;timestamp;pressure;altitude;pressure_sealevel;temperature;humidity
41624;BME280;27319;50.306;18.926;2024-01-11T00:00:26;99673.34;;;-10.88;81.35
41624;BME280;27319;50.306;18.926;2024-01-11T00:04:34;99655.00;;;-11.06;81.63
41624;BME280;27319;50.306;18.926;2024-01-11T00:08:34;99642.44;;;-10.98;81.60
41624;BME280;27319;50.306;18.926;2024-01-11T00:12:35;99646.78;;;-10.92;81.63
41624;BME280;27319;50.306;18.926;2024-01-11T00:16:36;99635.94;;;-11.13;81.18
41624;BME280;27319;50.306;18.926;2024-01-11T00:20:37;99640.78;;;-11.17;81.12
41624;BME280;27319;50.306;18.926;2024-01-11T00:24:37;99651.69;;;-11.20;80.68
41624;BME280;27319;50.306;18.926;2024-01-11T00:28:38;99638.16;;;-11.17;81.61
41624;BME280;27319;50.306;18.926;2024-01-11T00:32:39;99632.22;;;-11.06;81.63
41624;BME280;27319;50.306;18.926;2024-01-11T00:36:40;99622.50;;;-10.99;81.62
41624;BME280;27319;50.306;18.926;2024-01-11T00:40:41;99628.44;;;-10.85;81.25
41624;BME280;27319;50.306;18.926;2024-01-11T00:44:41;99618.03;;;-10.92;81.38
41624;BME280;27319;50.306;18.926;2024-01-11T00:48:42;99612.00;;;-10.92;81.07
41624;BME280;27319;50.306;18.926;2024-01-11T00:52:43;99617.13;;;-11.04;81.33
41624;BME280;27319;50.306;18.926;2024-01-11T00:56:44;99599.84;;;-11.05;81.05
41624;BME280;27319;50.306;18.926;2024-01-11T01:00:45;99611.03;;;-10.98;81.75
41624;BME280;27319;50.306;18.926;2024-01-11T01:04:46;99601.59;;;-10.99;82.12
41624;BME280;27319;50.306;18.926;2024-01-11T01:08:47;99601.59;;;-10.99;82.22
41624;BME280;27319;50.306;18.926;2024-01-11T01:12:47;99601.44;;;-11.04;82.44
41624;BME280;27319;50.306;18.926;2024-01-11T01:16:48;99605.50;;;-11.08;82.02
41624;BME280;27319;50.306;18.926;2024-01-11T01:20:50;99606.53;;;-11.09;81.75
41624;BME280;27319;50.306;18.926;2024-01-11T01:24:50;99606.38;;;-11.14;82.00
41624;BME280;27319;50.306;18.926;2024-01-11T01:28:51;99605.72;;;-11.09;81.99
41624;BME280;27319;50.306;18.926;2024-01-11T01:32:52;99595.63;;;-11.06;81.91
41624;BME280;27319;50.306;18.926;2024-01-11T01:36:52;99591.88;;;-10.92;81.41
41624;BME280;27319;50.306;18.926;2024-01-11T01:40:33;99598.09;;;-11.11;81.27
41624;BME280;27319;50.306;18.926;2024-01-11T01:43:54;99576.13;;;-11.28;81.41
41624;BME280;27319;50.306;18.926;2024-01-11T01:47:55;99597.97;;;-11.47;81.51
41624;BME280;27319;50.306;18.926;2024-01-11T01:51:55;99593.09;;;-11.37;81.17
41624;BME280;27319;50.306;18.926;2024-01-11T01:55:56;99589.59;;;-11.31;81.75
41624;BME280;27319;50.306;18.926;2024-01-11T01:59:57;99583.97;;;-11.28;81.76
41624;BME280;27319;50.306;18.926;2024-01-11T02:03:58;99574.41;;;-11.16;81.98
41624;BME280;27319;50.306;18.926;2024-01-11T02:07:59;99567.69;;;-11.30;82.15
41624;BME280;27319;50.306;18.926;2024-01-11T02:11:59;99564.69;;;-11.34;82.71
41624;BME280;27319;50.306;18.926;2024-01-11T02:16:00;99562.03;;;-11.27;82.68
41624;BME280;27319;50.306;18.926;2024-01-11T02:20:01;99563.56;;;-11.20;82.60
41624;BME280;27319;50.306;18.926;2024-01-11T02:24:05;99562.47;;;-11.12;82.14
41624;BME280;27319;50.306;18.926;2024-01-11T02:28:06;99553.47;;;-11.34;82.45
41624;BME280;27319;50.306;18.926;2024-01-11T02:32:06;99563.19;;;-11.23;81.87
41624;BME280;27319;50.306;18.926;2024-01-11T02:36:07;99564.81;;;-11.22;82.44
41624;BME280;27319;50.306;18.926;2024-01-11T02:40:08;99559.44;;;-11.09;82.14
41624;BME280;27319;50.306;18.926;2024-01-11T02:44:09;99559.44;;;-11.09;81.78
41624;BME280;27319;50.306;18.926;2024-01-11T02:48:10;99568.69;;;-11.06;81.85
41624;BME280;27319;50.306;18.926;2024-01-11T02:52:10;99559.56;;;-11.22;81.96
41624;BME280;27319;50.306;18.926;2024-01-11T02:56:11;99550.34;;;-11.25;82.48
41624;BME280;27319;50.306;18.926;2024-01-11T03:00:12;99552.66;;;-11.35;82.48
41624;BME280;27319;50.306;18.926;2024-01-11T03:04:13;99543.88;;;-11.22;81.96
41624;BME280;27319;50.306;18.926;2024-01-11T03:08:14;99536.63;;;-11.20;82.10
41624;BME280;27319;50.306;18.926;2024-01-11T03:12:14;99535.91;;;-11.27;82.60
41624;BME280;27319;50.306;18.926;2024-01-11T03:16:15;99540.03;;;-11.20;82.47
41624;BME280;27319;50.306;18.926;2024-01-11T03:20:16;99538.22;;;-11.19;81.85
41624;BME280;27319;50.306;18.926;2024-01-11T03:24:17;99524.72;;;-11.16;81.86
41624;BME280;27319;50.306;18.926;2024-01-11T03:28:18;99515.88;;;-11.15;81.98
41624;BME280;27319;50.306;18.926;2024-01-11T03:32:18;99521.50;;;-11.18;82.51
41624;BME280;27319;50.306;18.926;2024-01-11T03:36:22;99510.28;;;-11.43;82.80
41624;BME280;27319;50.306;18.926;2024-01-11T03:40:20;99504.75;;;-11.53;83.05
41624;BME280;27319;50.306;18.926;2024-01-11T03:44:21;99520.97;;;-11.45;82.92
41624;BME280;27319;50.306;18.926;2024-01-11T03:48:22;99534.56;;;-11.36;82.79
41624;BME280;27319;50.306;18.926;2024-01-11T03:52:23;99523.09;;;-11.35;82.72
41624;BME280;27319;50.306;18.926;2024-01-11T03:56:23;99513.78;;;-11.31;83.03
41624;BME280;27319;50.306;18.926;2024-01-11T04:00:24;99524.78;;;-11.23;83.06
41624;BME280;27319;50.306;18.926;2024-01-11T04:04:25;99521.22;;;-11.28;83.47
41624;BME280;27319;50.306;18.926;2024-01-11T04:08:26;99507.41;;;-11.35;82.82
41624;BME280;27319;50.306;18.926;2024-01-11T04:12:27;99498.56;;;-11.34;82.72
41624;BME280;27319;50.306;18.926;2024-01-11T04:16:28;99490.16;;;-11.00;83.92
41624;BME280;27319;50.306;18.926;2024-01-11T04:20:29;99500.16;;;-10.97;83.53
41624;BME280;27319;50.306;18.926;2024-01-11T04:24:29;99498.06;;;-10.88;84.23
41624;BME280;27319;50.306;18.926;2024-01-11T04:28:30;99503.94;;;-10.74;83.74
41624;BME280;27319;50.306;18.926;2024-01-11T04:32:31;99523.25;;;-10.39;83.71
41624;BME280;27319;50.306;18.926;2024-01-11T04:36:32;99493.03;;;-10.71;83.76
41624;BME280;27319;50.306;18.926;2024-01-11T04:40:13;99491.00;;;-10.69;83.33
41624;BME280;27319;50.306;18.926;2024-01-11T04:43:35;99501.75;;;-10.59;83.95
41624;BME280;27319;50.306;18.926;2024-01-11T04:47:34;99498.56;;;-10.61;83.86
41624;BME280;27319;50.306;18.926;2024-01-11T04:51:35;99502.91;;;-10.55;83.80
41624;BME280;27319;50.306;18.926;2024-01-11T04:55:36;99506.63;;;-10.63;83.49
41624;BME280;27319;50.306;18.926;2024-01-11T04:59:16;99500.59;;;-10.63;83.93
41624;BME280;27319;50.306;18.926;2024-01-11T05:03:17;99484.97;;;-10.70;83.85
41624;BME280;27319;50.306;18.926;2024-01-11T05:07:18;99481.53;;;-10.52;84.32
41624;BME280;27319;50.306;18.926;2024-01-11T05:11:19;99480.28;;;-10.50;84.06
41624;BME280;27319;50.306;18.926;2024-01-11T05:15:19;99458.72;;;-10.33;83.50
41624;BME280;27319;50.306;18.926;2024-01-11T05:19:20;99454.88;;;-10.31;83.53
41624;BME280;27319;50.306;18.926;2024-01-11T05:23:21;99456.69;;;-10.31;83.73
41624;BME280;27319;50.306;18.926;2024-01-11T05:27:22;99462.25;;;-10.28;83.32
41624;BME280;27319;50.306;18.926;2024-01-11T05:31:23;99467.75;;;-10.18;83.67
41624;BME280;27319;50.306;18.926;2024-01-11T05:35:23;99475.97;;;-10.03;82.75
41624;BME280;27319;50.306;18.926;2024-01-11T05:39:24;99482.97;;;-10.15;83.03
41624;BME280;27319;50.306;18.926;2024-01-11T05:43:25;99454.91;;;-9.96;83.11
41624;BME280;27319;50.306;18.926;2024-01-11T05:47:26;99454.59;;;-9.76;82.43
41624;BME280;27319;50.306;18.926;2024-01-11T05:51:27;99441.34;;;-9.81;82.84
41624;BME280;27319;50.306;18.926;2024-01-11T05:55:27;99428.69;;;-10.08;83.22
41624;BME280;27319;50.306;18.926;2024-01-11T05:59:28;99443.47;;;-10.13;83.52
41624;BME280;27319;50.306;18.926;2024-01-11T06:03:29;99438.94;;;-10.18;83.32
41624;BME280;27319;50.306;18.926;2024-01-11T06:07:30;99443.50;;;-10.02;83.47
41624;BME280;27319;50.306;18.926;2024-01-11T06:11:30;99462.88;;;-10.03;83.44
41624;BME280;27319;50.306;18.926;2024-01-11T06:15:31;99446.03;;;-9.83;83.17
41624;BME280;27319;50.306;18.926;2024-01-11T06:19:32;99437.91;;;-10.05;83.15
41624;BME280;27319;50.306;18.926;2024-01-11T06:23:33;99441.56;;;-10.18;83.57
41624;BME280;27319;50.306;18.926;2024-01-11T06:27:34;99420.03;;;-10.20;83.58
41624;BME280;27319;50.306;18.926;2024-01-11T06:31:34;99418.09;;;-10.13;83.21
41624;BME280;27319;50.306;18.926;2024-01-11T06:35:35;99409.69;;;-10.03;82.81
41624;BME280;27319;50.306;18.926;2024-01-11T06:39:36;99395.78;;;-9.80;82.03
41624;BME280;27319;50.306;18.926;2024-01-11T06:43:37;99371.84;;;-9.72;81.67
41624;BME280;27319;50.306;18.926;2024-01-11T06:47:38;99373.75;;;-9.44;80.09
41624;BME280;27319;50.306;18.926;2024-01-11T06:51:41;99370.03;;;-9.08;78.28
41624;BME280;27319;50.306;18.926;2024-01-11T06:55:42;99381.53;;;-9.09;78.83
41624;BME280;27319;50.306;18.926;2024-01-11T06:59:43;99370.47;;;-9.00;78.58
41624;BME280;27319;50.306;18.926;2024-01-11T07:03:44;99364.28;;;-9.05;79.09
41624;BME280;27319;50.306;18.926;2024-01-11T07:07:45;99360.41;;;-9.03;79.11
41624;BME280;27319;50.306;18.926;2024-01-11T07:11:45;99351.75;;;-8.75;78.08
41624;BME280;27319;50.306;18.926;2024-01-11T07:15:46;99337.53;;;-8.62;77.86
41624;BME280;27319;50.306;18.926;2024-01-11T07:19:47;99346.75;;;-8.26;77.47
41624;BME280;27319;50.306;18.926;2024-01-11T07:23:48;99354.56;;;-7.98;75.97
41624;BME280;27319;50.306;18.926;2024-01-11T07:27:49;99347.44;;;-7.81;75.75
41624;BME280;27319;50.306;18.926;2024-01-11T07:31:50;99374.56;;;-7.59;74.17
41624;BME280;27319;50.306;18.926;2024-01-11T07:35:50;99388.59;;;-7.31;74.71
41624;BME280;27319;50.306;18.926;2024-01-11T07:39:51;99378.84;;;-7.14;76.18
41624;BME280;27319;50.306;18.926;2024-01-11T07:43:52;99389.00;;;-7.01;74.74
41624;BME280;27319;50.306;18.926;2024-01-11T07:47:53;99369.63;;;-6.90;74.69
41624;BME280;27319;50.306;18.926;2024-01-11T07:51:53;99346.88;;;-7.01;74.13
41624;BME280;27319;50.306;18.926;2024-01-11T07:55:54;99336.03;;;-6.78;74.30
41624;BME280;27319;50.306;18.926;2024-01-11T07:59:55;99324.91;;;-6.58;74.84
41624;BME280;27319;50.306;18.926;2024-01-11T08:03:56;99304.16;;;-6.49;75.00
41624;BME280;27319;50.306;18.926;2024-01-11T08:07:57;99303.69;;;-6.41;73.57
41624;BME280;27319;50.306;18.926;2024-01-11T08:11:37;99316.00;;;-6.20;72.07
41624;BME280;27319;50.306;18.926;2024-01-11T08:15:38;99305.00;;;-6.07;71.22
41624;BME280;27319;50.306;18.926;2024-01-11T08:19:34;99302.47;;;-5.86;72.03
41624;BME280;27319;50.306;18.926;2024-01-11T08:22:35;99299.59;;;-5.90;71.68
41624;BME280;27319;50.306;18.926;2024-01-11T08:25:57;99287.47;;;-5.81;71.62
41624;BME280;27319;50.306;18.926;2024-01-11T08:30:01;99280.09;;;-5.79;71.35
41624;BME280;27319;50.306;18.926;2024-01-11T08:34:02;99282.25;;;-5.71;71.62
41624;BME280;27319;50.306;18.926;2024-01-11T08:37:43;99274.34;;;-5.66;69.72
41624;BME280;27319;50.306;18.926;2024-01-11T08:41:07;99274.81;;;-5.74;69.44
41624;BME280;27319;50.306;18.926;2024-01-11T08:45:08;99299.09;;;-5.77;70.30
41624;BME280;27319;50.306;18.926;2024-01-11T08:49:08;99309.91;;;-5.73;70.04
41624;BME280;27319;50.306;18.926;2024-01-11T08:53:09;99329.59;;;-5.44;66.15
41624;BME280;27319;50.306;18.926;2024-01-11T08:57:10;99328.63;;;-5.28;69.16
41624;BME280;27319;50.306;18.926;2024-01-11T09:01:11;99327.59;;;-5.11;68.01
41624;BME280;27319;50.306;18.926;2024-01-11T09:05:13;99325.56;;;-4.89;67.00
41624;BME280;27319;50.306;18.926;2024-01-11T09:09:12;99333.25;;;-4.83;67.49
41624;BME280;27319;50.306;18.926;2024-01-11T09:13:13;99322.41;;;-4.81;67.54
41624;BME280;27319;50.306;18.926;2024-01-11T09:17:14;99338.22;;;-4.96;67.46
41624;BME280;27319;50.306;18.926;2024-01-11T09:21:15;99335.63;;;-4.91;68.74
41624;BME280;27319;50.306;18.926;2024-01-11T09:25:16;99316.88;;;-4.85;67.38
41624;BME280;27319;50.306;18.926;2024-01-11T09:29:16;99329.03;;;-4.73;67.34
41624;BME280;27319;50.306;18.926;2024-01-11T09:33:17;99317.16;;;-4.56;64.53
41624;BME280;27319;50.306;18.926;2024-01-11T09:37:18;99324.56;;;-4.48;66.36
41624;BME280;27319;50.306;18.926;2024-01-11T09:41:09;99326.69;;;-4.40;66.07
41624;BME280;27319;50.306;18.926;2024-01-11T09:45:09;99299.47;;;-4.25;67.12
41624;BME280;27319;50.306;18.926;2024-01-11T09:49:09;99281.72;;;-4.19;66.75
41624;BME280;27319;50.306;18.926;2024-01-11T09:53:10;99288.09;;;-4.15;66.26
41624;BME280;27319;50.306;18.926;2024-01-11T09:57:11;99274.06;;;-4.11;66.70
41624;BME280;27319;50.306;18.926;2024-01-11T10:01:12;99260.31;;;-4.13;68.48
41624;BME280;27319;50.306;18.926;2024-01-11T10:05:13;99257.41;;;-4.26;68.36
41624;BME280;27319;50.306;18.926;2024-01-11T10:09:13;99270.13;;;-4.33;68.24
41624;BME280;27319;50.306;18.926;2024-01-11T10:13:17;99256.34;;;-4.25;69.36
41624;BME280;27319;50.306;18.926;2024-01-11T10:17:15;99244.19;;;-4.16;68.26
41624;BME280;27319;50.306;18.926;2024-01-11T10:21:16;99251.59;;;-4.08;66.56
41624;BME280;27319;50.306;18.926;2024-01-11T10:25:17;99245.19;;;-3.97;65.95
41624;BME280;27319;50.306;18.926;2024-01-11T10:29:21;99240.41;;;-3.90;65.98
41624;BME280;27319;50.306;18.926;2024-01-11T10:33:22;99226.41;;;-3.90;67.33
41624;BME280;27319;50.306;18.926;2024-01-11T10:37:23;99227.69;;;-3.83;65.29
41624;BME280;27319;50.306;18.926;2024-01-11T10:41:26;99224.44;;;-3.65;64.49
41624;BME280;27319;50.306;18.926;2024-01-11T10:45:27;99220.91;;;-3.40;63.26
41624;BME280;27319;50.306;18.926;2024-01-11T10:49:28;99209.19;;;-3.29;64.42
41624;BME280;27319;50.306;18.926;2024-01-11T10:53:41;99200.84;;;-3.07;63.09
41624;BME280;27319;50.306;18.926;2024-01-11T10:57:39;99198.72;;;-3.05;62.62
41624;BME280;27319;50.306;18.926;2024-01-11T11:01:39;99187.63;;;-3.17;63.12
41624;BME280;27319;50.306;18.926;2024-01-11T11:05:40;99196.09;;;-3.15;63.22
41624;BME280;27319;50.306;18.926;2024-01-11T11:09:41;99198.72;;;-3.10;63.38
41624;BME280;27319;50.306;18.926;2024-01-11T11:13:41;99185.94;;;-3.03;63.57
41624;BME280;27319;50.306;18.926;2024-01-11T11:17:42;99179.59;;;-3.02;62.74
41624;BME280;27319;50.306;18.926;2024-01-11T11:21:43;99184.00;;;-2.87;61.38
41624;BME280;27319;50.306;18.926;2024-01-11T11:25:47;99170.19;;;-2.84;63.25
41624;BME280;27319;50.306;18.926;2024-01-11T11:29:50;99157.69;;;-2.79;61.63
41624;BME280;27319;50.306;18.926;2024-01-11T11:33:51;99163.66;;;-2.63;61.13
41624;BME280;27319;50.306;18.926;2024-01-11T11:37:55;99163.94;;;-2.69;61.07
41624;BME280;27319;50.306;18.926;2024-01-11T11:41:55;99167.03;;;-2.57;61.34
41624;BME280;27319;50.306;18.926;2024-01-11T11:45:56;99157.22;;;-2.57;61.43
41624;BME280;27319;50.306;18.926;2024-01-11T11:50:06;99153.81;;;-2.62;62.91
41624;BME280;27319;50.306;18.926;2024-01-11T11:54:05;99143.25;;;-2.39;61.55
41624;BME280;27319;50.306;18.926;2024-01-11T11:58:06;99140.47;;;-2.52;64.02
41624;BME280;27319;50.306;18.926;2024-01-11T12:02:07;99129.94;;;-2.62;64.55
41624;BME280;27319;50.306;18.926;2024-01-11T12:06:09;99138.66;;;-2.57;62.53
41624;BME280;27319;50.306;18.926;2024-01-11T12:10:09;99137.41;;;-2.41;63.38
41624;BME280;27319;50.306;18.926;2024-01-11T12:14:09;99142.31;;;-2.53;63.76
41624;BME280;27319;50.306;18.926;2024-01-11T12:18:10;99128.84;;;-2.56;64.57
41624;BME280;27319;50.306;18.926;2024-01-11T12:22:10;99107.72;;;-2.66;64.75
41624;BME280;27319;50.306;18.926;2024-01-11T12:26:11;99107.41;;;-2.60;63.29
41624;BME280;27319;50.306;18.926;2024-01-11T12:30:12;99105.63;;;-2.69;63.57
41624;BME280;27319;50.306;18.926;2024-01-11T12:34:13;99104.09;;;-2.75;65.68
41624;BME280;27319;50.306;18.926;2024-01-11T12:38:20;99111.16;;;-2.66;65.33
41624;BME280;27319;50.306;18.926;2024-01-11T12:42:20;99105.13;;;-2.71;66.04
41624;BME280;27319;50.306;18.926;2024-01-11T12:46:22;99101.50;;;-2.81;66.63
41624;BME280;27319;50.306;18.926;2024-01-11T12:50:25;99100.84;;;-2.67;66.93
41624;BME280;27319;50.306;18.926;2024-01-11T12:54:25;99086.59;;;-2.77;67.33
41624;BME280;27319;50.306;18.926;2024-01-11T12:58:29;99081.88;;;-2.80;67.00
41624;BME280;27319;50.306;18.926;2024-01-11T13:02:30;99068.16;;;-2.87;67.30
41624;BME280;27319;50.306;18.926;2024-01-11T13:06:31;99071.03;;;-2.83;67.31
41624;BME280;27319;50.306;18.926;2024-01-11T13:10:31;99055.66;;;-2.81;67.94
41624;BME280;27319;50.306;18.926;2024-01-11T13:14:32;99046.69;;;-2.85;67.69
41624;BME280;27319;50.306;18.926;2024-01-11T13:18:33;99044.66;;;-2.93;69.11
41624;BME280;27319;50.306;18.926;2024-01-11T13:22:34;99039.63;;;-2.95;69.21
41624;BME280;27319;50.306;18.926;2024-01-11T13:26:35;99042.50;;;-2.91;69.16
41624;BME280;27319;50.306;18.926;2024-01-11T13:30:35;99032.41;;;-2.89;69.77
41624;BME280;27319;50.306;18.926;2024-01-11T13:34:36;99053.13;;;-2.91;69.02
41624;BME280;27319;50.306;18.926;2024-01-11T13:38:36;99056.13;;;-3.03;70.10
41624;BME280;27319;50.306;18.926;2024-01-11T13:42:37;99058.28;;;-3.05;70.22
41624;BME280;27319;50.306;18.926;2024-01-11T13:46:38;99054.72;;;-2.95;70.13
41624;BME280;27319;50.306;18.926;2024-01-11T13:50:39;99052.97;;;-3.05;70.54
41624;BME280;27319;50.306;18.926;2024-01-11T13:54:40;99049.81;;;-3.07;70.70
41624;BME280;27319;50.306;18.926;2024-01-11T13:58:21;99046.59;;;-3.04;70.40
41624;BME280;27319;50.306;18.926;2024-01-11T14:02:21;99052.25;;;-3.15;70.71
41624;BME280;27319;50.306;18.926;2024-01-11T14:06:23;99053.06;;;-3.15;70.82
41624;BME280;27319;50.306;18.926;2024-01-11T14:10:24;99049.88;;;-3.17;70.98
41624;BME280;27319;50.306;18.926;2024-01-11T14:14:24;99045.47;;;-3.27;72.24
41624;BME280;27319;50.306;18.926;2024-01-11T14:18:25;99052.63;;;-3.27;71.44
41624;BME280;27319;50.306;18.926;2024-01-11T14:22:26;99055.34;;;-3.37;72.57
41624;BME280;27319;50.306;18.926;2024-01-11T14:26:27;99059.06;;;-3.38;72.60
41624;BME280;27319;50.306;18.926;2024-01-11T14:30:28;99067.63;;;-3.46;73.72
41624;BME280;27319;50.306;18.926;2024-01-11T14:34:29;99077.13;;;-3.45;74.78
41624;BME280;27319;50.306;18.926;2024-01-11T14:38:30;99089.06;;;-3.48;75.60
41624;BME280;27319;50.306;18.926;2024-01-11T14:42:30;99074.72;;;-3.42;74.42
41624;BME280;27319;50.306;18.926;2024-01-11T14:46:31;99092.84;;;-3.54;74.99
41624;BME280;27319;50.306;18.926;2024-01-11T14:50:32;99101.84;;;-3.55;75.34
41624;BME280;27319;50.306;18.926;2024-01-11T14:54:33;99108.16;;;-3.51;74.72
41624;BME280;27319;50.306;18.926;2024-01-11T14:58:29;99109.22;;;-3.52;75.00
41624;BME280;27319;50.306;18.926;2024-01-11T15:01:30;99107.91;;;-3.54;75.58
41624;BME280;27319;50.306;18.926;2024-01-11T15:04:31;99119.03;;;-3.58;76.11
41624;BME280;27319;50.306;18.926;2024-01-11T15:07:32;99120.09;;;-3.53;76.18
41624;BME280;27319;50.306;18.926;2024-01-11T15:10:33;99112.72;;;-3.62;76.84
41624;BME280;27319;50.306;18.926;2024-01-11T15:13:34;99104.31;;;-3.69;77.66
41624;BME280;27319;50.306;18.926;2024-01-11T15:16:43;99102.75;;;-3.75;78.10
41624;BME280;27319;50.306;18.926;2024-01-11T15:19:48;99100.09;;;-3.75;79.37
41624;BME280;27319;50.306;18.926;2024-01-11T15:23:09;99103.25;;;-3.73;79.39
41624;BME280;27319;50.306;18.926;2024-01-11T15:26:50;99095.91;;;-3.86;80.55
41624;BME280;27319;50.306;18.926;2024-01-11T15:30:31;99106.00;;;-3.93;81.28
41624;BME280;27319;50.306;18.926;2024-01-11T15:33:32;99115.78;;;-3.93;82.21
41624;BME280;27319;50.306;18.926;2024-01-11T15:36:33;99109.50;;;-4.08;82.58
41624;BME280;27319;50.306;18.926;2024-01-11T15:39:34;99109.75;;;-3.99;82.47
41624;BME280;27319;50.306;18.926;2024-01-11T15:42:36;99109.25;;;-4.06;82.28
41624;BME280;27319;50.306;18.926;2024-01-11T15:45:37;99114.53;;;-4.01;83.19
41624;BME280;27319;50.306;18.926;2024-01-11T15:48:38;99108.66;;;-3.93;82.08
41624;BME280;27319;50.306;18.926;2024-01-11T15:51:39;99122.94;;;-3.94;81.79
41624;BME280;27319;50.306;18.926;2024-01-11T15:54:59;99111.38;;;-4.03;83.30
41624;BME280;27319;50.306;18.926;2024-01-11T15:58:00;99121.94;;;-4.03;82.56
41624;BME280;27319;50.306;18.926;2024-01-11T16:01:23;99120.88;;;-4.02;82.37
41624;BME280;27319;50.306;18.926;2024-01-11T16:05:23;99129.06;;;-3.99;82.42
41624;BME280;27319;50.306;18.926;2024-01-11T16:09:04;99130.41;;;-4.01;81.91
41624;BME280;27319;50.306;18.926;2024-01-11T16:12:06;99124.81;;;-4.00;82.23
41624;BME280;27319;50.306;18.926;2024-01-11T16:15:08;99127.75;;;-4.06;82.87
41624;BME280;27319;50.306;18.926;2024-01-11T16:18:10;99136.22;;;-4.04;82.21
41624;BME280;27319;50.306;18.926;2024-01-11T16:21:12;99128.28;;;-4.04;82.87
41624;BME280;27319;50.306;18.926;2024-01-11T16:24:33;99135.47;;;-4.10;83.36
41624;BME280;27319;50.306;18.926;2024-01-11T16:28:14;99134.69;;;-4.20;84.53
41624;BME280;27319;50.306;18.926;2024-01-11T16:31:18;99138.91;;;-4.19;84.37
41624;BME280;27319;50.306;18.926;2024-01-11T16:34:20;99143.94;;;-4.18;84.38
41624;BME280;27319;50.306;18.926;2024-01-11T16:37:40;99140.50;;;-4.08;84.08
41624;BME280;27319;50.306;18.926;2024-01-11T16:41:41;99154.22;;;-4.06;83.56
41624;BME280;27319;50.306;18.926;2024-01-11T16:45:42;99154.25;;;-4.11;84.18
41624;BME280;27319;50.306;18.926;2024-01-11T16:49:43;99163.75;;;-4.10;83.90
41624;BME280;27319;50.306;18.926;2024-01-11T16:52:58;99160.00;;;-3.99;82.91
41624;BME280;27319;50.306;18.926;2024-01-11T16:55:59;99151.84;;;-4.03;82.95
41624;BME280;27319;50.306;18.926;2024-01-11T16:59:00;99152.91;;;-4.09;83.32
41624;BME280;27319;50.306;18.926;2024-01-11T17:02:21;99151.59;;;-4.11;83.49
41624;BME280;27319;50.306;18.926;2024-01-11T17:06:02;99143.13;;;-4.13;83.36
41624;BME280;27319;50.306;18.926;2024-01-11T17:09:03;99153.72;;;-4.08;83.24
41624;BME280;27319;50.306;18.926;2024-01-11T17:12:07;99149.50;;;-4.19;83.80
41624;BME280;27319;50.306;18.926;2024-01-11T17:15:08;99143.94;;;-4.13;84.25
41624;BME280;27319;50.306;18.926;2024-01-11T17:18:29;99151.06;;;-4.08;83.93
41624;BME280;27319;50.306;18.926;2024-01-11T17:21:59;99145.25;;;-4.10;83.91
41624;BME280;27319;50.306;18.926;2024-01-11T17:25:20;99152.09;;;-4.04;84.22
41624;BME280;27319;50.306;18.926;2024-01-11T17:29:21;99157.16;;;-4.18;85.25
41624;BME280;27319;50.306;18.926;2024-01-11T17:32:37;99166.72;;;-4.22;86.15
41624;BME280;27319;50.306;18.926;2024-01-11T17:35:39;99159.84;;;-4.23;85.91
41624;BME280;27319;50.306;18.926;2024-01-11T17:38:41;99161.16;;;-4.25;86.24
41624;BME280;27319;50.306;18.926;2024-01-11T17:41:42;99166.72;;;-4.22;86.23
41624;BME280;27319;50.306;18.926;2024-01-11T17:44:46;99160.06;;;-4.19;86.22
41624;BME280;27319;50.306;18.926;2024-01-11T17:48:07;99163.78;;;-4.20;86.41
41624;BME280;27319;50.306;18.926;2024-01-11T17:52:08;99150.84;;;-4.22;86.08
41624;BME280;27319;50.306;18.926;2024-01-11T17:56:08;99163.78;;;-4.15;85.80
41624;BME280;27319;50.306;18.926;2024-01-11T18:00:09;99166.44;;;-4.15;85.86
41624;BME280;27319;50.306;18.926;2024-01-11T18:04:10;99164.28;;;-4.13;86.25
41624;BME280;27319;50.306;18.926;2024-01-11T18:08:11;99156.88;;;-4.11;85.52
41624;BME280;27319;50.306;18.926;2024-01-11T18:12:12;99161.91;;;-4.15;85.97
41624;BME280;27319;50.306;18.926;2024-01-11T18:16:12;99155.28;;;-4.12;85.55
41624;BME280;27319;50.306;18.926;2024-01-11T18:20:13;99156.88;;;-4.11;86.40
41624;BME280;27319;50.306;18.926;2024-01-11T18:24:14;99163.75;;;-4.10;85.90
41624;BME280;27319;50.306;18.926;2024-01-11T18:28:15;99159.50;;;-4.06;86.59
41624;BME280;27319;50.306;18.926;2024-01-11T18:31:56;99157.41;;;-4.09;86.83
41624;BME280;27319;50.306;18.926;2024-01-11T18:35:16;99152.63;;;-4.07;86.78
41624;BME280;27319;50.306;18.926;2024-01-11T18:38:57;99160.28;;;-4.06;86.67
41624;BME280;27319;50.306;18.926;2024-01-11T18:42:19;99156.88;;;-4.01;87.88
41624;BME280;27319;50.306;18.926;2024-01-11T18:46:20;99156.34;;;-4.08;87.88
41624;BME280;27319;50.306;18.926;2024-01-11T18:50:20;99163.19;;;-3.97;87.88
41624;BME280;27319;50.306;18.926;2024-01-11T18:54:21;99151.03;;;-4.03;88.20
41624;BME280;27319;50.306;18.926;2024-01-11T18:58:22;99141.00;;;-4.01;88.11
41624;BME280;27319;50.306;18.926;2024-01-11T19:02:23;99142.53;;;-4.00;87.54
41624;BME280;27319;50.306;18.926;2024-01-11T19:06:24;99143.13;;;-4.08;88.98
41624;BME280;27319;50.306;18.926;2024-01-11T19:10:25;99137.25;;;-4.00;88.58
41624;BME280;27319;50.306;18.926;2024-01-11T19:14:26;99139.41;;;-4.02;88.61
41624;BME280;27319;50.306;18.926;2024-01-11T19:18:27;99150.47;;;-3.95;87.77
41624;BME280;27319;50.306;18.926;2024-01-11T19:22:27;99142.03;;;-3.97;88.32
41624;BME280;27319;50.306;18.926;2024-01-11T19:26:29;99143.59;;;-3.96;88.37
41624;BME280;27319;50.306;18.926;2024-01-11T19:30:30;99151.00;;;-3.98;88.89
41624;BME280;27319;50.306;18.926;2024-01-11T19:33:35;99139.91;;;-3.95;88.92
41624;BME280;27319;50.306;18.926;2024-01-11T19:36:39;99137.75;;;-3.93;88.66
41624;BME280;27319;50.306;18.926;2024-01-11T19:39:40;99139.09;;;-3.95;88.89
41624;BME280;27319;50.306;18.926;2024-01-11T19:42:41;99139.91;;;-3.95;89.06
41624;BME280;27319;50.306;18.926;2024-01-11T19:45:42;99144.09;;;-3.94;88.90
41624;BME280;27319;50.306;18.926;2024-01-11T19:48:43;99144.66;;;-3.97;89.05
41624;BME280;27319;50.306;18.926;2024-01-11T19:51:44;99152.06;;;-3.99;89.51
41624;BME280;27319;50.306;18.926;2024-01-11T19:54:46;99146.50;;;-3.92;88.96
41624;BME280;27319;50.306;18.926;2024-01-11T19:58:06;99154.72;;;-3.99;89.09